createdAt,value
2022-09-30T00:01:06.903Z,6.40
2022-09-30T00:03:38.662Z,6.50
2022-09-30T00:06:12.857Z,6.40
2022-09-30T00:08:44.697Z,6.40
2022-09-30T00:11:18.733Z,6.30
2022-09-30T00:13:51.536Z,6.40
2022-09-30T00:16:23.796Z,6.30
2022-09-30T00:18:58.734Z,6.30
2022-09-30T00:21:30.425Z,6.30
2022-09-30T00:24:02.820Z,6.20
2022-09-30T00:26:35.211Z,6.20
2022-09-30T00:29:07.005Z,6.20
2022-09-30T00:31:38.960Z,6.20
2022-09-30T00:34:13.603Z,6.10
2022-09-30T00:36:46.787Z,6.20
2022-09-30T00:39:18.830Z,6.20
2022-09-30T00:41:52.960Z,6.20
2022-09-30T00:44:43.330Z,6.20
2022-09-30T00:47:28.587Z,6.20
2022-09-30T00:50:08.755Z,6.20
2022-09-30T00:52:40.984Z,6.20
2022-09-30T00:55:20.698Z,6.20
2022-09-30T00:57:52.930Z,6.20
2022-09-30T01:00:24.780Z,6.20
2022-09-30T01:02:56.574Z,6.20
2022-09-30T01:05:28.917Z,6.20
2022-09-30T01:08:02.052Z,6.20
2022-09-30T01:10:33.906Z,6.20
2022-09-30T01:13:05.922Z,6.20
2022-09-30T01:15:48.699Z,6.30
2022-09-30T01:18:23.522Z,6.20
2022-09-30T01:21:15.513Z,6.20
2022-09-30T01:23:58.126Z,6.20
2022-09-30T01:26:35.874Z,6.20
2022-09-30T01:29:26.363Z,6.20
2022-09-30T01:32:10.170Z,6.20
2022-09-30T01:34:48.160Z,6.20
2022-09-30T01:37:24.034Z,6.30
2022-09-30T01:40:07.878Z,6.30
2022-09-30T01:42:40.445Z,6.30
2022-09-30T01:45:30.670Z,6.30
2022-09-30T01:48:13.930Z,6.30
2022-09-30T01:50:45.614Z,6.30
2022-09-30T01:53:23.386Z,6.30
2022-09-30T01:56:06.347Z,6.30
2022-09-30T01:58:38.100Z,6.20
2022-09-30T02:01:22.578Z,6.20
2022-09-30T02:03:57.070Z,6.20
2022-09-30T02:06:33.050Z,6.20
2022-09-30T02:09:14.974Z,6.20
2022-09-30T02:11:46.852Z,6.20
2022-09-30T02:14:23.484Z,6.20
2022-09-30T02:17:11.043Z,6.20
2022-09-30T02:19:47.885Z,6.20
2022-09-30T02:22:19.593Z,6.20
2022-09-30T02:24:55.285Z,6.20
2022-09-30T02:27:31.586Z,6.20
2022-09-30T02:30:04.347Z,6.30
2022-09-30T02:32:39.996Z,6.30
2022-09-30T02:35:17.219Z,6.30
2022-09-30T02:37:53.363Z,6.40
2022-09-30T02:40:33.602Z,6.30
2022-09-30T02:43:05.630Z,6.30
2022-09-30T02:45:45.316Z,6.30
2022-09-30T02:48:40.791Z,6.40
2022-09-30T02:51:18.970Z,6.30
2022-09-30T02:53:50.648Z,6.30
2022-09-30T02:56:31.264Z,6.30
2022-09-30T02:59:03.153Z,6.30
2022-09-30T03:01:34.939Z,6.30
2022-09-30T03:04:10.250Z,6.20
2022-09-30T03:06:42.104Z,6.30
2022-09-30T03:09:16.240Z,6.20
2022-09-30T03:11:48.475Z,6.20
2022-09-30T03:14:44.062Z,6.20
2022-09-30T03:17:26.697Z,6.20
2022-09-30T03:20:16.901Z,6.10
2022-09-30T03:22:51.492Z,6.10
2022-09-30T03:25:28.420Z,6.00
2022-09-30T03:28:03.357Z,6.00
2022-09-30T03:30:38.722Z,5.90
2022-09-30T03:33:14.245Z,6.00
2022-09-30T03:35:50.302Z,5.90
2022-09-30T03:38:31.461Z,6.00
2022-09-30T03:41:22.134Z,6.00
2022-09-30T03:44:12.887Z,6.00
2022-09-30T03:46:54.971Z,6.00
2022-09-30T03:49:39.035Z,6.00
2022-09-30T03:52:12.313Z,6.00
2022-09-30T03:54:48.643Z,5.90
2022-09-30T03:57:20.439Z,5.90
2022-09-30T03:59:52.267Z,5.90
2022-09-30T04:02:24.808Z,5.80
2022-09-30T04:04:56.765Z,5.80
2022-09-30T04:07:28.481Z,5.90
2022-09-30T04:10:00.341Z,5.80
2022-09-30T04:12:32.181Z,5.80
2022-09-30T04:15:04.070Z,5.80
2022-09-30T04:17:35.789Z,5.70
2022-09-30T04:20:07.724Z,5.70
2022-09-30T04:22:42.005Z,5.20
2022-09-30T04:25:13.957Z,5.70
2022-09-30T04:27:45.683Z,5.70
2022-09-30T04:30:20.262Z,5.60
2022-09-30T04:32:55.733Z,5.60
2022-09-30T04:35:29.725Z,5.60
2022-09-30T04:38:02.783Z,5.60
2022-09-30T04:40:38.508Z,5.50
2022-09-30T04:43:10.233Z,5.60
2022-09-30T04:45:45.255Z,5.60
2022-09-30T04:48:17.086Z,5.70
2022-09-30T04:50:49.064Z,5.70
2022-09-30T04:53:20.928Z,5.80
2022-09-30T04:55:58.577Z,5.80
2022-09-30T04:58:36.872Z,5.90
2022-09-30T05:01:10.022Z,5.90
2022-09-30T05:03:43.469Z,5.90
2022-09-30T05:06:16.704Z,6.00
2022-09-30T05:08:48.474Z,6.10
2022-09-30T05:11:22.974Z,6.10
2022-09-30T05:13:55.354Z,6.10
2022-09-30T05:16:28.204Z,6.20
2022-09-30T05:19:00.042Z,6.20
2022-09-30T05:21:31.895Z,6.20
2022-09-30T05:24:03.891Z,6.30
2022-09-30T05:26:37.950Z,6.30
2022-09-30T05:29:10.167Z,6.40
2022-09-30T05:31:42.822Z,6.50
2022-09-30T05:34:16.876Z,6.60
2022-09-30T05:36:48.676Z,6.70
2022-09-30T05:39:20.425Z,6.80
2022-09-30T05:41:52.435Z,6.90
2022-09-30T05:44:24.255Z,7.00
2022-09-30T05:46:59.835Z,7.10
2022-09-30T05:49:34.480Z,7.10
2022-09-30T05:52:07.954Z,7.20
2022-09-30T05:54:40.372Z,7.30
2022-09-30T05:57:12.121Z,7.40
2022-09-30T05:59:44.064Z,7.40
2022-09-30T06:02:15.949Z,7.50
2022-09-30T06:04:47.743Z,7.60
2022-09-30T06:07:19.528Z,7.60
2022-09-30T06:09:51.328Z,7.70
2022-09-30T06:12:23.288Z,7.80
2022-09-30T06:14:55.446Z,7.90
2022-09-30T06:17:27.212Z,8.00
2022-09-30T06:19:58.963Z,8.10
2022-09-30T06:22:32.153Z,8.10
2022-09-30T06:25:07.274Z,8.30
2022-09-30T06:27:39.052Z,8.40
2022-09-30T06:30:13.000Z,8.80
2022-09-30T06:32:47.229Z,9.40
2022-09-30T06:35:20.624Z,10.00
2022-09-30T06:37:52.522Z,10.50
2022-09-30T06:40:24.913Z,11.50
2022-09-30T06:43:00.267Z,12.80
2022-09-30T06:45:35.725Z,13.80
2022-09-30T06:48:09.305Z,14.30
2022-09-30T06:50:42.921Z,15.00
2022-09-30T06:53:16.487Z,16.00
2022-09-30T06:55:48.222Z,17.00
2022-09-30T06:58:20.783Z,17.60
2022-09-30T07:00:58.407Z,18.20
2022-09-30T07:03:34.241Z,18.90
2022-09-30T07:06:06.340Z,19.20
2022-09-30T07:08:39.038Z,19.30
2022-09-30T07:11:14.912Z,19.30
2022-09-30T07:13:47.548Z,18.60
2022-09-30T07:16:19.967Z,17.30
2022-09-30T07:18:52.175Z,16.40
2022-09-30T07:21:23.881Z,15.50
2022-09-30T07:23:56.811Z,14.60
2022-09-30T07:26:29.007Z,13.90
2022-09-30T07:29:00.809Z,13.30
2022-09-30T07:31:34.628Z,12.80
2022-09-30T07:34:08.270Z,12.50
2022-09-30T07:36:42.947Z,12.10
2022-09-30T07:39:14.723Z,11.80
2022-09-30T07:41:46.454Z,11.60
2022-09-30T07:44:18.456Z,11.40
2022-09-30T07:46:52.323Z,11.20
2022-09-30T07:49:25.733Z,11.10
2022-09-30T07:51:58.762Z,11.20
2022-09-30T07:54:37.355Z,11.50
2022-09-30T07:57:12.422Z,11.70
2022-09-30T07:59:44.336Z,12.00
2022-09-30T08:02:17.265Z,12.20
2022-09-30T08:04:49.149Z,12.40
2022-09-30T08:07:20.938Z,12.60
2022-09-30T08:09:52.771Z,12.70
2022-09-30T08:12:24.574Z,12.90
2022-09-30T08:14:56.430Z,13.10
2022-09-30T08:17:30.602Z,13.20
2022-09-30T08:20:02.347Z,13.40
2022-09-30T08:22:34.054Z,13.40
2022-09-30T08:25:06.068Z,13.50
2022-09-30T08:27:37.977Z,13.70
2022-09-30T08:30:09.989Z,13.70
2022-09-30T08:32:42.149Z,13.80
2022-09-30T08:35:13.943Z,13.90
2022-09-30T08:37:45.734Z,14.00
2022-09-30T08:40:19.540Z,14.10
2022-09-30T08:42:57.764Z,14.20
2022-09-30T08:45:34.719Z,14.20
2022-09-30T08:51:05.047Z,14.40
2022-09-30T08:53:40.119Z,14.50
2022-09-30T08:56:21.852Z,14.60
2022-09-30T08:59:16.088Z,14.60
2022-09-30T09:01:49.120Z,14.60
2022-09-30T09:04:20.898Z,14.70
2022-09-30T09:06:54.911Z,14.70
2022-09-30T09:09:38.796Z,14.80
2022-09-30T09:12:16.313Z,14.80
2022-09-30T09:14:49.994Z,14.80
2022-09-30T09:17:37.085Z,14.80
2022-09-30T09:20:16.759Z,14.90
2022-09-30T09:22:49.090Z,14.90
2022-09-30T09:25:27.240Z,14.90
2022-09-30T09:28:01.705Z,14.90
2022-09-30T09:30:38.538Z,14.90
2022-09-30T09:33:18.690Z,15.00
2022-09-30T09:35:50.443Z,15.00
2022-09-30T09:38:27.251Z,15.00
2022-09-30T09:41:24.438Z,15.10
2022-09-30T09:44:17.750Z,15.10
2022-09-30T09:46:52.930Z,15.10
2022-09-30T09:49:24.796Z,15.20
2022-09-30T09:51:59.586Z,15.30
2022-09-30T09:54:33.275Z,15.40
2022-09-30T09:57:07.459Z,15.40
2022-09-30T09:59:54.688Z,15.40
2022-09-30T10:02:31.734Z,15.40
2022-09-30T10:05:04.407Z,15.50
2022-09-30T10:07:40.831Z,15.50
2022-09-30T10:10:23.050Z,15.60
2022-09-30T10:12:55.915Z,15.60
2022-09-30T10:15:28.321Z,15.50
2022-09-30T10:18:00.965Z,15.60
2022-09-30T10:20:33.921Z,15.70
2022-09-30T10:23:08.693Z,15.70
2022-09-30T10:25:54.361Z,15.80
2022-09-30T10:28:28.445Z,15.90
2022-09-30T10:31:00.284Z,15.90
2022-09-30T10:33:37.216Z,15.80
2022-09-30T10:36:13.869Z,15.70
2022-09-30T10:38:48.562Z,15.60
2022-09-30T10:41:25.970Z,15.60
2022-09-30T10:44:00.080Z,15.60
2022-09-30T10:46:42.112Z,15.50
2022-09-30T10:49:43.226Z,15.50
2022-09-30T10:52:22.562Z,15.50
2022-09-30T10:54:55.654Z,15.40
2022-09-30T10:57:27.373Z,15.40
2022-09-30T11:00:03.883Z,15.40
2022-09-30T11:02:48.273Z,15.30
2022-09-30T11:05:31.397Z,15.20
2022-09-30T11:08:21.200Z,15.10
2022-09-30T11:11:11.345Z,15.10
2022-09-30T11:13:45.195Z,15.10
2022-09-30T11:16:20.057Z,15.10
2022-09-30T11:19:13.284Z,15.10
2022-09-30T11:22:03.390Z,15.10
2022-09-30T11:24:41.510Z,15.00
2022-09-30T11:27:21.022Z,15.00
2022-09-30T11:30:15.782Z,15.10
2022-09-30T11:32:53.500Z,15.00
2022-09-30T11:35:42.980Z,15.00
2022-09-30T11:38:14.757Z,14.90
2022-09-30T11:40:46.495Z,14.90
2022-09-30T11:43:24.328Z,14.90
2022-09-30T11:46:25.644Z,14.90
2022-09-30T11:49:06.797Z,15.00
2022-09-30T11:51:40.696Z,15.00
2022-09-30T11:54:21.475Z,15.00
2022-09-30T11:56:59.842Z,15.00
2022-09-30T11:59:39.306Z,14.90
2022-09-30T12:02:29.244Z,14.90
2022-09-30T12:05:05.957Z,15.00
2022-09-30T12:07:44.074Z,15.00
2022-09-30T12:10:27.428Z,15.10
2022-09-30T12:13:03.408Z,15.10
2022-09-30T12:15:35.747Z,15.30
2022-09-30T12:18:15.099Z,15.60
2022-09-30T12:20:49.675Z,15.90
2022-09-30T12:23:31.902Z,16.10
2022-09-30T12:26:04.733Z,16.40
2022-09-30T12:29:14.736Z,16.60
2022-09-30T12:31:58.492Z,16.70
2022-09-30T12:34:39.244Z,16.80
2022-09-30T12:37:13.152Z,16.90
2022-09-30T12:39:50.897Z,17.00
2022-09-30T12:42:28.495Z,16.90
2022-09-30T12:45:16.735Z,16.60
2022-09-30T12:47:48.505Z,16.30
2022-09-30T12:50:21.646Z,15.90
2022-09-30T12:52:53.655Z,15.60
2022-09-30T12:55:31.355Z,15.20
2022-09-30T12:58:03.442Z,14.90
2022-09-30T13:00:36.169Z,14.70
2022-09-30T13:03:15.466Z,14.50
2022-09-30T13:05:58.086Z,14.40
2022-09-30T13:08:41.169Z,14.20
2022-09-30T13:11:34.217Z,14.00
2022-09-30T13:14:16.190Z,13.90
2022-09-30T13:17:06.866Z,13.80
2022-09-30T13:19:42.884Z,13.70
2022-09-30T13:22:30.279Z,13.50
2022-09-30T13:25:05.224Z,13.50
2022-09-30T13:27:44.740Z,13.50
2022-09-30T13:30:16.578Z,13.50
2022-09-30T13:33:02.440Z,13.50
2022-09-30T13:35:46.079Z,13.50
2022-09-30T13:38:18.922Z,13.40
2022-09-30T13:41:02.289Z,13.30
2022-09-30T13:43:47.296Z,13.30
2022-09-30T13:46:25.043Z,13.20
2022-09-30T13:49:17.881Z,13.10
2022-09-30T13:51:49.929Z,13.10
2022-09-30T13:54:38.184Z,13.00
2022-09-30T13:57:12.604Z,12.90
2022-09-30T13:59:44.313Z,12.90
2022-09-30T14:02:25.467Z,12.80
2022-09-30T14:05:15.959Z,12.80
2022-09-30T14:08:20.272Z,12.70
2022-09-30T14:10:51.966Z,12.70
2022-09-30T14:13:39.215Z,12.70
2022-09-30T14:16:28.083Z,12.70
2022-09-30T14:19:02.878Z,12.90
2022-09-30T14:21:35.301Z,12.90
2022-09-30T14:24:17.575Z,13.00
2022-09-30T14:27:01.356Z,13.00
2022-09-30T14:30:08.470Z,13.00
2022-09-30T14:32:55.691Z,12.90
2022-09-30T14:35:29.583Z,12.90
2022-09-30T14:38:03.211Z,12.80
2022-09-30T14:40:36.321Z,12.80
2022-09-30T14:43:13.090Z,12.70
2022-09-30T14:45:49.537Z,12.70
2022-09-30T14:48:28.204Z,12.60
2022-09-30T14:51:04.299Z,12.60
2022-09-30T14:53:37.538Z,12.60
2022-09-30T14:56:39.214Z,12.50
2022-09-30T14:59:22.146Z,12.50
2022-09-30T15:02:09.903Z,12.60
2022-09-30T15:04:46.853Z,12.70
2022-09-30T15:07:18.661Z,12.80
2022-09-30T15:09:50.966Z,12.90
2022-09-30T15:12:28.770Z,13.00
2022-09-30T15:15:00.536Z,13.10
2022-09-30T15:17:40.869Z,13.20
2022-09-30T15:20:32.515Z,13.30
2022-09-30T15:23:09.361Z,13.30
2022-09-30T15:25:41.439Z,13.40
2022-09-30T15:28:13.609Z,13.40
2022-09-30T15:30:45.440Z,13.40
2022-09-30T15:33:19.054Z,13.40
2022-09-30T15:35:53.098Z,13.40
2022-09-30T15:38:26.131Z,13.40
2022-09-30T15:41:18.133Z,13.40
2022-09-30T15:43:51.761Z,13.30
2022-09-30T15:46:29.794Z,13.20
2022-09-30T15:49:02.648Z,13.10
2022-09-30T15:51:39.254Z,13.00
2022-09-30T15:54:29.343Z,12.90
2022-09-30T15:57:03.392Z,12.80
2022-09-30T15:59:56.755Z,12.60
2022-09-30T16:02:29.793Z,12.50
2022-09-30T16:05:02.402Z,12.30
2022-09-30T16:07:34.785Z,12.20
2022-09-30T16:10:08.683Z,12.10
2022-09-30T16:12:42.381Z,12.00
2022-09-30T16:15:15.716Z,11.90
2022-09-30T16:17:48.573Z,11.80
2022-09-30T16:20:27.386Z,11.70
2022-09-30T16:23:01.663Z,11.70
2022-09-30T16:25:33.900Z,11.60
2022-09-30T16:28:15.012Z,11.50
2022-09-30T16:30:50.564Z,11.40
2022-09-30T16:33:22.307Z,11.40
2022-09-30T16:35:54.302Z,11.40
2022-09-30T16:38:26.087Z,11.30
2022-09-30T16:40:59.252Z,11.30
2022-09-30T16:43:31.717Z,11.30
2022-09-30T16:46:03.547Z,11.30
2022-09-30T16:48:35.385Z,11.30
2022-09-30T16:51:14.888Z,11.30
2022-09-30T16:53:48.051Z,11.30
2022-09-30T16:56:20.307Z,11.20
2022-09-30T16:58:52.092Z,11.20
2022-09-30T17:01:24.855Z,11.20
2022-09-30T17:03:57.544Z,11.20
2022-09-30T17:06:30.487Z,11.20
2022-09-30T17:09:03.018Z,11.20
2022-09-30T17:11:35.531Z,11.20
2022-09-30T17:14:07.285Z,11.20
2022-09-30T17:16:39.229Z,11.20
2022-09-30T17:19:11.024Z,11.30
2022-09-30T17:21:42.926Z,11.30
2022-09-30T17:24:14.736Z,11.30
2022-09-30T17:26:46.541Z,11.30
2022-09-30T17:29:32.043Z,11.30
2022-09-30T17:32:04.562Z,11.30
2022-09-30T17:34:36.321Z,11.30
2022-09-30T17:39:44.763Z,11.20
2022-09-30T17:42:39.709Z,11.20
2022-09-30T17:45:11.542Z,11.20
2022-09-30T17:47:43.312Z,11.20
2022-09-30T17:50:18.803Z,11.10
2022-09-30T17:52:50.644Z,11.10
2022-09-30T17:55:22.375Z,11.10
2022-09-30T17:57:55.802Z,11.10
2022-09-30T18:00:28.039Z,11.10
2022-09-30T18:03:02.960Z,11.00
2022-09-30T18:05:34.812Z,11.00
2022-09-30T18:08:06.693Z,11.00
2022-09-30T18:10:38.371Z,11.00
2022-09-30T18:13:13.373Z,11.00
2022-09-30T18:15:48.047Z,11.00
2022-09-30T18:18:20.097Z,11.00
2022-09-30T18:20:52.097Z,11.00
2022-09-30T18:23:24.004Z,11.00
2022-09-30T18:25:56.418Z,11.00
2022-09-30T18:28:28.332Z,11.00
2022-09-30T18:31:09.340Z,11.00
2022-09-30T18:33:41.115Z,11.00
2022-09-30T18:36:15.231Z,11.00
2022-09-30T18:38:47.083Z,11.00
2022-09-30T18:41:19.010Z,11.00
2022-09-30T18:43:51.344Z,11.00
2022-09-30T18:46:23.191Z,11.00
2022-09-30T18:48:56.246Z,11.00
2022-09-30T18:51:29.337Z,11.00
2022-09-30T18:54:05.879Z,11.00
2022-09-30T18:56:37.642Z,11.00
2022-09-30T18:59:19.247Z,11.00
2022-09-30T19:01:55.780Z,11.00
2022-09-30T19:04:27.672Z,11.00
2022-09-30T19:06:59.407Z,10.90
2022-09-30T19:09:31.302Z,10.90
2022-09-30T19:12:05.480Z,10.90
2022-09-30T19:14:38.054Z,10.90
2022-09-30T19:17:11.465Z,10.90
2022-09-30T19:19:45.867Z,10.90
2022-09-30T19:22:20.268Z,10.90
2022-09-30T19:24:53.913Z,10.90
2022-09-30T19:27:27.175Z,11.00
2022-09-30T19:29:59.589Z,11.00
2022-09-30T19:32:34.553Z,10.90
2022-09-30T19:35:10.219Z,11.00
2022-09-30T19:37:54.367Z,10.90
2022-09-30T19:43:08.879Z,10.90
2022-09-30T19:45:44.462Z,10.90
2022-09-30T19:48:16.308Z,10.90
2022-09-30T19:50:48.180Z,10.90
2022-09-30T19:53:29.664Z,10.90
2022-09-30T19:56:06.712Z,10.90
2022-09-30T19:58:39.870Z,10.90
2022-09-30T20:01:12.760Z,10.90
2022-09-30T20:03:44.874Z,10.90
2022-09-30T20:06:18.410Z,10.90
2022-09-30T20:08:52.157Z,10.90
2022-09-30T20:11:25.416Z,10.90
2022-09-30T20:14:18.953Z,10.80
2022-09-30T20:16:53.668Z,10.80
2022-09-30T20:19:25.535Z,10.80
2022-09-30T20:21:57.354Z,10.80
2022-09-30T20:24:29.116Z,10.70
2022-09-30T20:27:00.931Z,10.70
2022-09-30T20:29:33.649Z,10.70
2022-09-30T20:32:05.500Z,10.70
2022-09-30T20:34:38.980Z,10.70
2022-09-30T20:37:11.460Z,10.70
2022-09-30T20:39:46.375Z,10.70
2022-09-30T20:42:18.214Z,10.70
2022-09-30T20:44:50.000Z,10.70
2022-09-30T20:47:21.974Z,10.70
2022-09-30T20:49:58.143Z,10.70
2022-09-30T20:52:30.402Z,10.70
2022-09-30T20:55:03.291Z,10.80
2022-09-30T20:57:35.229Z,10.80
2022-09-30T21:00:09.755Z,10.70
2022-09-30T21:02:42.101Z,10.70
2022-09-30T21:05:16.365Z,10.70
2022-09-30T21:07:48.206Z,10.70
2022-09-30T21:10:20.362Z,10.70
2022-09-30T21:12:52.145Z,10.60
2022-09-30T21:15:27.572Z,10.60
2022-09-30T21:17:59.485Z,10.50
2022-09-30T21:20:31.232Z,10.40
2022-09-30T21:23:03.555Z,10.40
2022-09-30T21:25:35.331Z,10.40
2022-09-30T21:28:07.184Z,10.30
2022-09-30T21:30:42.304Z,10.20
2022-09-30T21:33:14.079Z,10.20
2022-09-30T21:35:46.962Z,10.10
2022-09-30T21:38:18.825Z,10.00
2022-09-30T21:40:50.712Z,10.10
2022-09-30T21:43:22.619Z,10.00
2022-09-30T21:46:01.370Z,10.00
2022-09-30T21:48:33.331Z,9.90
2022-09-30T21:51:06.099Z,9.90
2022-09-30T21:53:39.061Z,9.90
2022-09-30T21:56:12.231Z,9.80
2022-09-30T21:58:44.097Z,9.80
2022-09-30T22:01:15.892Z,9.80
2022-09-30T22:03:47.650Z,9.70
2022-09-30T22:06:19.461Z,9.70
2022-09-30T22:08:51.580Z,9.70
2022-09-30T22:11:25.150Z,9.60
2022-09-30T22:13:57.592Z,9.60
2022-09-30T22:16:31.037Z,9.60
2022-09-30T22:19:04.635Z,9.50
2022-09-30T22:21:37.488Z,9.50
2022-09-30T22:24:09.505Z,9.40
2022-09-30T22:26:41.657Z,9.40
2022-09-30T22:29:13.519Z,9.40
2022-09-30T22:31:45.430Z,9.30
2022-09-30T22:34:36.111Z,9.30
2022-09-30T22:37:27.283Z,9.30
2022-09-30T22:40:01.056Z,9.30
2022-09-30T22:42:35.754Z,9.20
2022-09-30T22:45:07.737Z,9.20
2022-09-30T22:47:39.456Z,9.20
2022-09-30T22:50:11.228Z,9.20
2022-09-30T22:52:45.410Z,9.20
2022-09-30T22:55:17.146Z,9.10
2022-09-30T22:57:48.890Z,9.10
2022-09-30T23:00:20.619Z,9.10
2022-09-30T23:02:52.933Z,9.00
2022-09-30T23:05:26.759Z,9.00
2022-09-30T23:07:58.490Z,9.00
2022-09-30T23:10:30.187Z,8.90
2022-09-30T23:13:01.887Z,8.90
2022-09-30T23:15:33.800Z,8.90
2022-09-30T23:18:05.526Z,8.90
2022-09-30T23:20:37.383Z,8.90
2022-09-30T23:23:11.560Z,8.80
2022-09-30T23:25:43.330Z,8.80
2022-09-30T23:28:15.143Z,8.80
2022-09-30T23:30:46.941Z,8.80
2022-09-30T23:33:18.749Z,8.70
2022-09-30T23:35:50.680Z,8.80
2022-09-30T23:38:26.423Z,8.70
2022-09-30T23:41:01.086Z,8.70
2022-09-30T23:43:34.242Z,8.60
2022-09-30T23:46:06.862Z,8.70
2022-09-30T23:48:41.234Z,8.70
2022-09-30T23:51:13.936Z,8.60
2022-09-30T23:53:45.675Z,8.60
2022-09-30T23:56:18.363Z,8.60
2022-09-30T23:58:50.546Z,8.60
